Time;durP1;ratioP1;P1;durP2;ratioP2;P2;SDS_P1;SDS_P2;PMS_P1;PMS_P2;Temp;Humidity;BMP_temperature;BMP_pressure;BME280_temperature;BME280_humidity;BME280_pressure;Samples;Min_cycle;Max_cycle;Signal;HPM_P1;HPM_P2
2022/05/31 00:00:18;;;;;;;3.83;3.30;;;13.20;87.80;;;;;;5072360;28;20230;-69
2022/05/31 00:02:45;;;;;;;2.85;2.65;;;13.20;88.30;;;;;;5072486;28;20207;-70
2022/05/31 00:05:13;;;;;;;3.45;3.22;;;13.20;89.10;;;;;;5071978;28;20224;-70
2022/05/31 00:07:41;;;;;;;3.38;3.08;;;13.10;89.20;;;;;;5072479;28;20228;-70
2022/05/31 00:10:09;;;;;;;4.05;3.50;;;13.10;89.30;;;;;;5072227;28;20573;-69
2022/05/31 00:12:38;;;;;;;3.83;3.50;;;13.00;90.10;;;;;;5072379;28;20576;-69
2022/05/31 00:15:07;;;;;;;3.47;3.15;;;13.10;90.00;;;;;;5072181;28;20569;-70
2022/05/31 00:17:34;;;;;;;3.42;3.20;;;13.00;90.00;;;;;;5072075;28;20218;-69
2022/05/31 00:20:01;;;;;;;3.88;3.58;;;13.00;89.60;;;;;;5071856;28;20230;-69
2022/05/31 00:22:28;;;;;;;3.30;3.00;;;13.00;89.70;;;;;;5072370;28;20205;-69
2022/05/31 00:24:55;;;;;;;3.40;3.13;;;13.00;89.80;;;;;;5072133;28;20199;-68
2022/05/31 00:27:24;;;;;;;3.30;3.00;;;12.90;90.00;;;;;;5071929;28;20206;-70
2022/05/31 00:29:52;;;;;;;3.60;3.30;;;12.90;90.30;;;;;;5071815;28;20199;-69
2022/05/31 00:32:25;;;;;;;3.50;3.20;;;12.90;90.50;;;;;;5072048;28;20293;-69
2022/05/31 00:34:54;;;;;;;3.20;2.90;;;12.90;90.60;;;;;;5072220;28;20211;-69
2022/05/31 00:37:21;;;;;;;3.60;3.30;;;12.90;90.50;;;;;;5071829;28;20661;-69
2022/05/31 00:39:48;;;;;;;3.90;3.50;;;12.90;90.70;;;;;;5071704;28;20226;-69
2022/05/31 00:42:19;;;;;;;3.70;3.40;;;12.90;90.80;;;;;;5071821;28;20209;-69
2022/05/31 00:44:46;;;;;;;3.30;3.00;;;12.80;90.90;;;;;;5071829;28;20213;-69
2022/05/31 00:47:17;;;;;;;3.72;3.42;;;12.90;91.00;;;;;;5071640;28;20294;-68
2022/05/31 00:49:48;;;;;;;3.80;3.50;;;12.90;91.00;;;;;;5071984;28;20199;-68
2022/05/31 00:52:18;;;;;;;6.47;3.25;;;12.80;91.20;;;;;;5072083;28;20597;-68
2022/05/31 00:55:01;;;;;;;3.70;3.35;;;12.80;91.30;;;;;;5072588;28;20206;-69
2022/05/31 00:57:29;;;;;;;5.88;3.50;;;12.80;91.40;;;;;;5075206;28;20245;-69
2022/05/31 01:00:00;;;;;;;3.67;3.35;;;12.80;91.50;;;;;;5075396;28;20314;-70
2022/05/31 01:02:28;;;;;;;4.45;3.50;;;12.70;92.10;;;;;;5075598;28;20206;-68
2022/05/31 01:04:58;;;;;;;4.03;3.70;;;12.70;91.80;;;;;;5075182;28;20683;-69
2022/05/31 01:07:25;;;;;;;4.28;3.88;;;12.70;91.90;;;;;;5074966;28;20203;-68
2022/05/31 01:09:53;;;;;;;4.05;3.55;;;12.60;92.00;;;;;;5074972;28;20689;-69
2022/05/31 01:12:20;;;;;;;3.90;3.60;;;12.50;92.10;;;;;;5075488;28;20203;-69
2022/05/31 01:14:47;;;;;;;3.95;3.65;;;12.50;92.40;;;;;;5075189;28;20575;-69
2022/05/31 01:17:16;;;;;;;3.97;3.65;;;12.40;92.80;;;;;;5075296;28;20205;-68
2022/05/31 01:19:58;;;;;;;4.68;3.90;;;12.40;93.10;;;;;;5076176;28;20233;-68
2022/05/31 01:22:35;;;;;;;3.72;3.42;;;12.40;93.30;;;;;;5075939;28;20214;-68
2022/05/31 01:25:10;;;;;;;4.25;3.85;;;12.30;93.40;;;;;;5075940;28;20746;-68
2022/05/31 01:27:46;;;;;;;3.90;3.60;;;12.30;93.50;;;;;;5075975;28;20762;-68
2022/05/31 01:30:14;;;;;;;4.00;3.58;;;12.30;93.60;;;;;;5076066;28;20274;-68
2022/05/31 01:32:45;;;;;;;3.85;3.55;;;12.30;93.70;;;;;;5075734;28;20568;-68
2022/05/31 01:35:18;;;;;;;3.95;3.65;;;12.30;93.70;;;;;;5075943;28;20203;-68
2022/05/31 01:37:52;;;;;;;4.68;3.50;;;12.20;93.90;;;;;;5076318;28;20227;-68
2022/05/31 01:40:28;;;;;;;3.83;3.50;;;12.20;94.00;;;;;;5075977;28;20214;-68
2022/05/31 01:42:55;;;;;;;4.10;3.80;;;12.20;94.20;;;;;;5075545;28;20242;-68
2022/05/31 01:45:26;;;;;;;3.95;3.65;;;12.30;94.40;;;;;;5075612;28;20209;-68
2022/05/31 01:47:56;;;;;;;3.78;3.47;;;12.20;94.50;;;;;;5075389;28;20700;-68
2022/05/31 01:50:24;;;;;;;5.03;4.38;;;12.20;94.90;;;;;;5075724;28;20203;-67
2022/05/31 01:52:53;;;;;;;4.20;3.80;;;12.20;95.00;;;;;;5075249;28;20214;-68
2022/05/31 01:55:22;;;;;;;3.90;3.50;;;12.10;95.00;;;;;;5075500;28;20657;-68
2022/05/31 01:57:52;;;;;;;3.95;3.65;;;12.20;95.10;;;;;;5075404;28;20619;-68
2022/05/31 02:00:20;;;;;;;3.90;3.55;;;12.20;95.20;;;;;;5075190;28;20693;-68
2022/05/31 02:02:51;;;;;;;4.13;3.83;;;12.30;94.90;;;;;;5075122;28;20203;-68
2022/05/31 02:05:19;;;;;;;3.53;3.33;;;12.30;94.90;;;;;;5075541;28;20206;-68
2022/05/31 02:07:54;;;;;;;3.97;3.67;;;12.30;95.10;;;;;;5075170;28;20317;-68
2022/05/31 02:10:21;;;;;;;3.63;3.33;;;12.30;95.40;;;;;;5075311;28;20193;-68
2022/05/31 02:12:48;;;;;;;4.20;3.80;;;12.20;95.50;;;;;;5074844;28;20199;-68
2022/05/31 02:15:15;;;;;;;4.18;3.88;;;12.20;95.40;;;;;;5075133;28;20206;-68
2022/05/31 02:17:42;;;;;;;4.10;3.80;;;12.20;95.20;;;;;;5075273;28;20237;-68
2022/05/31 02:20:10;;;;;;;3.95;3.65;;;12.20;95.80;;;;;;5074744;28;20688;-68
2022/05/31 02:22:37;;;;;;;4.03;3.72;;;12.30;96.10;;;;;;5074738;28;20199;-68
2022/05/31 02:25:07;;;;;;;3.75;3.45;;;12.20;95.60;;;;;;5074659;28;20206;-67
2022/05/31 02:27:34;;;;;;;4.05;3.75;;;12.20;95.40;;;;;;5074811;28;20310;-68
2022/05/31 02:30:01;;;;;;;4.28;3.95;;;12.20;95.70;;;;;;5074904;28;20229;-67
2022/05/31 02:32:27;;;;;;;4.13;3.70;;;12.20;95.60;;;;;;5074558;28;20280;-68
2022/05/31 02:34:55;;;;;;;4.25;3.78;;;12.10;96.00;;;;;;5074745;28;20637;-67
2022/05/31 02:37:22;;;;;;;4.60;4.20;;;12.10;96.10;;;;;;5075338;28;20561;-67
2022/05/31 02:39:49;;;;;;;4.05;3.65;;;12.20;96.00;;;;;;5074308;28;20227;-67
2022/05/31 02:42:18;;;;;;;3.83;3.50;;;12.20;95.80;;;;;;5074421;28;20209;-68
2022/05/31 02:44:46;;;;;;;4.53;4.13;;;12.20;95.70;;;;;;5074437;28;20297;-68
2022/05/31 02:47:13;;;;;;;3.80;3.50;;;12.10;95.90;;;;;;5074407;28;20229;-68
2022/05/31 02:49:41;;;;;;;4.32;3.92;;;12.00;95.70;;;;;;5074468;28;20198;-68
2022/05/31 02:52:08;;;;;;;4.13;3.75;;;12.00;96.20;;;;;;5074262;28;20208;-68
2022/05/31 02:54:35;;;;;;;3.85;3.55;;;12.00;96.30;;;;;;5074312;28;20301;-68
2022/05/31 02:57:02;;;;;;;3.65;3.35;;;12.00;96.30;;;;;;5074136;28;20294;-67
2022/05/31 02:59:30;;;;;;;3.70;3.40;;;12.00;96.30;;;;;;5074166;28;20227;-68
2022/05/31 03:01:57;;;;;;;6.82;3.85;;;11.90;96.30;;;;;;5074188;28;20203;-68
2022/05/31 03:04:25;;;;;;;4.40;3.97;;;11.90;96.70;;;;;;5073930;28;20213;-67
2022/05/31 03:06:52;;;;;;;4.25;3.85;;;11.90;96.80;;;;;;5073845;28;20209;-68
2022/05/31 03:09:19;;;;;;;3.92;3.63;;;11.90;96.70;;;;;;5074096;28;20225;-68
2022/05/31 03:11:50;;;;;;;4.13;3.75;;;11.90;96.80;;;;;;5073902;28;20315;-68
2022/05/31 03:14:22;;;;;;;3.90;3.60;;;11.80;97.00;;;;;;5073800;28;20213;-68
2022/05/31 03:16:57;;;;;;;4.00;3.50;;;11.80;97.00;;;;;;5073952;28;20213;-68
2022/05/31 03:19:28;;;;;;;3.83;3.53;;;11.80;97.20;;;;;;5073906;28;20222;-67
2022/05/31 03:22:00;;;;;;;4.30;3.90;;;11.80;97.30;;;;;;5073933;28;20210;-68
2022/05/31 03:24:37;;;;;;;4.47;3.63;;;11.80;97.50;;;;;;5073932;28;20206;-68
2022/05/31 03:27:07;;;;;;;6.70;3.95;;;11.60;97.70;;;;;;5073881;28;20209;-67
2022/05/31 03:29:36;;;;;;;4.20;3.75;;;11.50;97.70;;;;;;5073838;28;20195;-68
2022/05/31 03:32:06;;;;;;;4.65;3.90;;;11.60;97.80;;;;;;5073760;28;20260;-69
2022/05/31 03:34:33;;;;;;;4.30;4.00;;;11.50;98.20;;;;;;5073726;28;20286;-68
2022/05/31 03:37:00;;;;;;;4.15;3.75;;;11.60;98.30;;;;;;5073639;28;20203;-67
2022/05/31 03:39:27;;;;;;;4.80;4.40;;;11.60;98.50;;;;;;5073498;28;20313;-67
2022/05/31 03:41:53;;;;;;;4.35;3.95;;;11.40;99.10;;;;;;5073532;28;20203;-68
2022/05/31 03:44:20;;;;;;;5.00;3.88;;;11.40;99.60;;;;;;5073470;28;20199;-68
2022/05/31 03:46:47;;;;;;;5.13;4.72;;;11.50;99.90;;;;;;5073613;28;20213;-67
2022/05/31 03:49:16;;;;;;;4.40;4.00;;;11.50;99.90;;;;;;5073555;28;20222;-68
2022/05/31 03:51:42;;;;;;;3.97;3.65;;;11.60;99.90;;;;;;5073559;28;20236;-67
2022/05/31 03:54:09;;;;;;;4.30;4.00;;;11.70;99.90;;;;;;5073162;28;20213;-68
2022/05/31 03:56:37;;;;;;;4.72;4.20;;;11.60;99.90;;;;;;5073425;28;20205;-67
2022/05/31 03:59:04;;;;;;;4.68;4.28;;;11.70;99.90;;;;;;5073404;28;20234;-68
2022/05/31 04:01:31;;;;;;;4.57;4.00;;;11.70;99.90;;;;;;5073274;28;20206;-68
2022/05/31 04:03:58;;;;;;;5.00;4.50;;;11.80;99.90;;;;;;5073246;28;20211;-68
2022/05/31 04:06:26;;;;;;;5.20;4.70;;;11.80;99.90;;;;;;5073451;28;20203;-68
2022/05/31 04:08:53;;;;;;;4.85;4.35;;;11.80;99.90;;;;;;5073189;28;20226;-68
2022/05/31 04:11:19;;;;;;;5.07;4.57;;;11.90;99.90;;;;;;5073389;28;20201;-68
2022/05/31 04:13:46;;;;;;;6.30;4.57;;;12.00;99.90;;;;;;5073540;28;20297;-68
2022/05/31 04:16:16;;;;;;;5.00;4.60;;;12.00;99.90;;;;;;5073811;28;20631;-67
2022/05/31 04:18:42;;;;;;;5.05;4.65;;;12.00;99.90;;;;;;5073303;28;20231;-68
2022/05/31 04:21:11;;;;;;;6.05;4.68;;;12.00;99.90;;;;;;5073212;28;20588;-67
2022/05/31 04:26:24;;;;;;;5.72;5.13;;;11.80;99.90;;;;;;5073360;28;20210;-68
2022/05/31 04:28:51;;;;;;;5.78;5.03;;;11.80;99.90;;;;;;5073251;28;20229;-67
2022/05/31 04:31:18;;;;;;;7.32;5.63;;;11.60;99.90;;;;;;5076057;28;20760;-67
2022/05/31 04:33:45;;;;;;;7.00;5.32;;;11.50;99.90;;;;;;5076764;28;20205;-67
2022/05/31 04:36:14;;;;;;;5.22;4.70;;;11.40;99.90;;;;;;5076974;28;20209;-67
2022/05/31 04:38:43;;;;;;;5.47;4.97;;;11.40;99.90;;;;;;5076985;28;20231;-67
2022/05/31 04:41:16;;;;;;;5.30;4.80;;;11.50;99.90;;;;;;5076707;28;20226;-68
2022/05/31 04:43:43;;;;;;;5.93;5.07;;;11.60;99.90;;;;;;5076755;28;20289;-68
2022/05/31 04:46:11;;;;;;;7.80;5.25;;;11.60;99.90;;;;;;5076519;28;20199;-68
2022/05/31 04:48:38;;;;;;;5.97;5.38;;;11.60;99.90;;;;;;5076781;28;20223;-69
2022/05/31 04:51:05;;;;;;;5.70;4.95;;;11.70;99.90;;;;;;5076474;28;20657;-69
2022/05/31 04:53:32;;;;;;;6.00;5.30;;;11.70;99.90;;;;;;5076415;28;20214;-69
2022/05/31 04:56:03;;;;;;;6.53;5.15;;;11.70;99.90;;;;;;5076570;28;20722;-69
2022/05/31 04:58:29;;;;;;;7.93;6.10;;;11.70;99.90;;;;;;5076480;28;20222;-69
2022/05/31 05:00:57;;;;;;;8.48;6.55;;;11.70;99.90;;;;;;5076167;28;20230;-69
2022/05/31 05:03:23;;;;;;;8.32;6.00;;;11.70;99.90;;;;;;5076365;28;20205;-69
2022/05/31 05:05:50;;;;;;;7.97;5.80;;;11.70;99.90;;;;;;5076235;28;20665;-68
2022/05/31 05:08:17;;;;;;;8.40;6.35;;;11.80;99.90;;;;;;5076700;28;20233;-69
2022/05/31 05:10:47;;;;;;;10.10;6.88;;;11.80;99.90;;;;;;5076299;28;20199;-69
2022/05/31 05:13:15;;;;;;;6.68;5.65;;;11.90;99.90;;;;;;5076006;28;20783;-69
2022/05/31 05:15:43;;;;;;;7.45;6.45;;;11.90;99.90;;;;;;5076237;28;20203;-69
2022/05/31 05:18:10;;;;;;;8.30;6.55;;;11.90;99.90;;;;;;5076282;28;20313;-68
2022/05/31 05:20:40;;;;;;;6.60;5.90;;;11.90;99.90;;;;;;5075950;28;20226;-68
2022/05/31 05:23:08;;;;;;;6.50;5.90;;;12.00;99.90;;;;;;5076175;28;20206;-68
2022/05/31 05:25:35;;;;;;;7.47;6.13;;;11.90;99.90;;;;;;5076008;28;20209;-69
2022/05/31 05:30:38;;;;;;;7.00;6.40;;;11.90;99.90;;;;;;5076042;28;20222;-69
2022/05/31 05:30:50;;;;;;;7.47;6.65;;;11.90;99.90;;;;;;5075828;28;20228;-69
2022/05/31 05:33:17;;;;;;;6.45;5.85;;;11.90;99.90;;;;;;5075900;28;20564;-68
2022/05/31 05:35:44;;;;;;;6.78;6.15;;;11.90;99.90;;;;;;5075948;28;20205;-69
2022/05/31 05:38:13;;;;;;;7.00;6.30;;;12.00;99.90;;;;;;5075685;28;20226;-69
2022/05/31 05:40:40;;;;;;;10.25;6.95;;;12.00;99.90;;;;;;5075250;28;20249;-69
2022/05/31 05:43:08;;;;;;;7.68;6.88;;;12.00;99.90;;;;;;5075645;28;20298;-68
2022/05/31 05:45:36;;;;;;;9.65;7.30;;;12.00;99.90;;;;;;5075790;28;20610;-69
2022/05/31 05:48:05;;;;;;;8.88;7.97;;;12.10;99.90;;;;;;5075661;28;20222;-69
2022/05/31 05:50:34;;;;;;;10.95;7.75;;;12.30;99.90;;;;;;5075735;28;20207;-68
2022/05/31 05:53:03;;;;;;;7.97;7.18;;;12.50;99.90;;;;;;5075121;28;20562;-69
2022/05/31 05:55:30;;;;;;;8.02;7.18;;;12.50;99.90;;;;;;5075543;28;20207;-68
2022/05/31 05:57:57;;;;;;;8.45;7.55;;;12.60;99.90;;;;;;5075517;28;20317;-69
2022/05/31 06:00:24;;;;;;;8.05;6.63;;;12.70;99.90;;;;;;5075447;28;20226;-69
2022/05/31 06:02:56;;;;;;;9.30;7.28;;;12.80;99.90;;;;;;5075185;28;20289;-69
2022/05/31 06:05:28;;;;;;;8.00;7.20;;;12.90;99.90;;;;;;5075428;28;20597;-69
2022/05/31 06:08:00;;;;;;;7.68;6.82;;;13.00;99.90;;;;;;5075303;28;20227;-69
2022/05/31 06:10:29;;;;;;;7.65;6.75;;;13.00;99.90;;;;;;5075104;28;20660;-69
2022/05/31 06:13:02;;;;;;;8.18;7.38;;;13.10;99.90;;;;;;5075031;28;20225;-69
2022/05/31 06:15:32;;;;;;;15.30;8.25;;;13.30;99.90;;;;;;5075210;28;20203;-69
2022/05/31 06:18:01;;;;;;;8.90;7.15;;;13.40;99.90;;;;;;5075280;28;20233;-69
2022/05/31 06:20:30;;;;;;;8.73;7.82;;;13.50;99.90;;;;;;5075009;28;20314;-69
2022/05/31 06:22:58;;;;;;;9.60;8.60;;;13.50;99.90;;;;;;5074865;28;20210;-69
2022/05/31 06:25:25;;;;;;;10.40;8.30;;;13.60;99.90;;;;;;5075039;28;20203;-68
2022/05/31 06:27:52;;;;;;;11.15;9.20;;;13.60;99.90;;;;;;5074814;28;20261;-69
2022/05/31 06:30:19;;;;;;;11.75;9.27;;;13.70;99.90;;;;;;5074877;28;20202;-68
2022/05/31 06:32:46;;;;;;;13.45;9.80;;;13.80;99.90;;;;;;5074658;28;20211;-69
2022/05/31 06:35:13;;;;;;;11.63;9.43;;;13.80;99.90;;;;;;5074974;28;20293;-69
2022/05/31 06:37:41;;;;;;;12.70;10.43;;;13.90;99.90;;;;;;5074859;28;20220;-69
2022/05/31 06:40:09;;;;;;;13.15;11.20;;;14.00;99.90;;;;;;5074686;28;20584;-69
2022/05/31 06:42:36;;;;;;;11.05;9.90;;;14.00;99.90;;;;;;5074391;28;20594;-69
2022/05/31 06:45:03;;;;;;;13.77;9.88;;;14.10;99.90;;;;;;5074304;28;20749;-69
2022/05/31 06:47:30;;;;;;;12.40;10.90;;;14.20;99.90;;;;;;5074435;28;20223;-69
2022/05/31 06:49:57;;;;;;;12.50;10.00;;;14.40;99.90;;;;;;5074211;28;20299;-69
2022/05/31 06:57:54;;;;;;;10.10;9.10;;;14.80;99.10;;;;;;5073191;28;20227;-68
2022/05/31 07:00:22;;;;;;;10.15;9.15;;;14.90;99.20;;;;;;5059706;28;20239;-69
2022/05/31 07:02:50;;;;;;;12.30;8.55;;;15.10;99.10;;;;;;5073026;28;20203;-69
2022/05/31 07:05:19;;;;;;;10.63;8.85;;;15.40;98.60;;;;;;5072971;28;20223;-69
2022/05/31 07:07:46;;;;;;;11.32;7.95;;;15.40;98.10;;;;;;5072945;28;20226;-69
2022/05/31 07:10:15;;;;;;;8.77;7.85;;;15.60;97.60;;;;;;5073007;28;20205;-69
2022/05/31 07:12:42;;;;;;;9.50;7.32;;;16.00;97.90;;;;;;5072593;28;20289;-70
2022/05/31 07:15:10;;;;;;;8.13;7.30;;;16.60;98.10;;;;;;5072540;28;20678;-68
2022/05/31 07:17:36;;;;;;;8.80;6.93;;;16.70;96.00;;;;;;5072707;28;20258;-69
2022/05/31 07:20:04;;;;;;;7.45;6.35;;;16.70;95.00;;;;;;5072848;28;20747;-69
2022/05/31 07:22:31;;;;;;;7.65;6.88;;;16.40;95.80;;;;;;5072454;28;20206;-69
2022/05/31 07:24:58;;;;;;;7.30;6.68;;;16.50;95.70;;;;;;5072612;28;20199;-69
2022/05/31 07:27:26;;;;;;;7.35;6.65;;;16.50;95.20;;;;;;5072434;28;20766;-70
2022/05/31 07:29:54;;;;;;;7.13;6.20;;;16.50;95.10;;;;;;5072732;28;20207;-70
2022/05/31 07:32:21;;;;;;;7.18;6.47;;;16.60;95.20;;;;;;5072491;28;20228;-69
2022/05/31 07:34:50;;;;;;;7.20;6.57;;;16.50;95.10;;;;;;5072690;28;20571;-69
2022/05/31 07:37:17;;;;;;;7.38;6.50;;;16.50;95.20;;;;;;5072427;28;20202;-68
2022/05/31 07:39:44;;;;;;;6.75;5.75;;;16.50;95.30;;;;;;5072904;28;20607;-70
2022/05/31 07:42:11;;;;;;;7.15;6.45;;;16.60;95.20;;;;;;5072487;28;20227;-70
2022/05/31 07:44:40;;;;;;;6.13;5.53;;;16.90;95.20;;;;;;5072688;28;20636;-69
2022/05/31 07:47:06;;;;;;;6.20;5.60;;;17.30;95.60;;;;;;5072464;28;20214;-70
2022/05/31 07:49:33;;;;;;;6.13;5.20;;;17.70;94.60;;;;;;5072491;28;20568;-70
2022/05/31 07:52:00;;;;;;;7.10;5.50;;;18.20;93.40;;;;;;5072333;28;20285;-70
2022/05/31 07:54:32;;;;;;;4.83;4.43;;;19.00;90.40;;;;;;5072373;28;20220;-69
2022/05/31 07:56:58;;;;;;;6.10;5.27;;;19.60;87.10;;;;;;5072325;28;20534;-69
2022/05/31 07:59:27;;;;;;;4.87;4.47;;;19.90;86.40;;;;;;5072519;28;20912;-70
2022/05/31 08:01:55;;;;;;;5.23;4.73;;;20.60;86.30;;;;;;5072340;28;20487;-69
2022/05/31 08:04:22;;;;;;;4.40;4.00;;;21.20;86.50;;;;;;5073748;28;20962;-69
2022/05/31 08:06:51;;;;;;;4.77;4.10;;;21.20;84.00;;;;;;5076368;28;20942;-69
2022/05/31 08:09:18;;;;;;;3.00;2.80;;;21.50;86.20;;;;;;5076592;28;20506;-70
2022/05/31 08:11:44;;;;;;;3.97;3.57;;;21.20;77.20;;;;;;5076372;28;20960;-70
2022/05/31 08:14:12;;;;;;;4.03;3.47;;;21.00;78.30;;;;;;5076098;28;20936;-70
2022/05/31 08:16:39;;;;;;;3.87;3.57;;;20.90;79.90;;;;;;5076193;28;20454;-69
2022/05/31 08:19:08;;;;;;;3.37;3.07;;;21.00;78.60;;;;;;5076900;28;20828;-69
2022/05/31 08:21:34;;;;;;;3.50;3.20;;;21.20;77.80;;;;;;5077301;28;20484;-69
2022/05/31 08:24:03;;;;;;;3.20;2.90;;;21.50;76.00;;;;;;5077203;28;20535;-69
2022/05/31 08:26:29;;;;;;;12.30;9.80;;;22.10;73.40;;;;;;5077441;28;20449;-70
2022/05/31 08:28:57;;;;;;;5.90;5.30;;;22.40;72.50;;;;;;5076943;28;21019;-70
2022/05/31 08:31:27;;;;;;;4.67;3.20;;;22.90;70.60;;;;;;5077125;28;20517;-70
2022/05/31 08:33:54;;;;;;;3.13;2.93;;;23.60;67.60;;;;;;5076854;28;20949;-70
2022/05/31 08:36:23;;;;;;;3.07;2.87;;;24.60;67.00;;;;;;5077081;28;20524;-70
2022/05/31 08:38:49;;;;;;;4.23;3.87;;;25.20;64.90;;;;;;5077032;28;20465;-70
2022/05/31 08:41:27;;;;;;;4.23;3.83;;;25.80;64.40;;;;;;5076828;28;20474;-71
2022/05/31 08:44:05;;;;;;;3.10;2.80;;;27.40;58.10;;;;;;5076556;28;20519;-70
2022/05/31 08:46:41;;;;;;;3.80;2.97;;;28.60;53.10;;;;;;5076713;28;20926;-70
2022/05/31 08:49:18;;;;;;;2.77;2.57;;;28.30;49.20;;;;;;5076866;28;20483;-68
2022/05/31 08:51:54;;;;;;;2.97;2.77;;;28.50;49.40;;;;;;5076824;28;20433;-70
2022/05/31 08:57:33;;;;;;;2.93;2.73;;;28.60;50.30;;;;;;5076682;28;20807;-68
2022/05/31 09:00:04;;;;;;;2.63;2.53;;;29.90;47.30;;;;;;5076575;28;20433;-68
2022/05/31 09:02:36;;;;;;;3.73;3.50;;;29.60;45.20;;;;;;5076311;28;20490;-68
2022/05/31 09:05:06;;;;;;;4.90;2.90;;;29.00;45.40;;;;;;5076328;28;20447;-70
2022/05/31 09:07:45;;;;;;;3.10;2.90;;;28.10;47.30;;;;;;5076223;28;20507;-70
2022/05/31 09:10:20;;;;;;;2.90;2.70;;;27.60;48.90;;;;;;5076579;28;20482;-70
2022/05/31 09:12:53;;;;;;;3.33;3.03;;;27.80;49.10;;;;;;5076152;28;20458;-70
2022/05/31 09:15:24;;;;;;;3.07;2.87;;;28.80;50.00;;;;;;5075445;28;20449;-71
2022/05/31 09:18:03;;;;;;;2.67;2.50;;;29.60;48.10;;;;;;5076351;28;20469;-70
2022/05/31 09:20:40;;;;;;;3.20;3.00;;;29.90;45.40;;;;;;5076381;28;20445;-70
2022/05/31 09:23:09;;;;;;;2.93;2.60;;;29.30;44.30;;;;;;5075992;28;20455;-70
2022/05/31 09:25:41;;;;;;;4.23;3.03;;;29.60;46.00;;;;;;5076096;28;20536;-70
2022/05/31 09:28:26;;;;;;;2.90;2.80;;;29.90;45.50;;;;;;5076138;28;20477;-70
2022/05/31 09:30:53;;;;;;;3.00;2.80;;;29.50;44.50;;;;;;5076132;28;20913;-70
2022/05/31 09:33:27;;;;;;;3.10;2.90;;;28.60;45.70;;;;;;5075765;28;20806;-70
2022/05/31 09:36:03;;;;;;;3.30;3.10;;;28.20;46.20;;;;;;5076007;28;20446;-70
2022/05/31 09:38:56;;;;;;;3.07;2.87;;;27.60;49.00;;;;;;5075963;28;20465;-70
2022/05/31 09:41:27;;;;;;;3.00;2.77;;;27.60;50.50;;;;;;5075804;28;20489;-70
2022/05/31 09:44:06;;;;;;;3.23;3.03;;;27.80;49.00;;;;;;5075786;28;20448;-70
2022/05/31 09:46:39;;;;;;;3.50;3.30;;;27.00;50.50;;;;;;5075918;28;20449;-70
2022/05/31 09:49:36;;;;;;;3.80;2.80;;;26.40;54.40;;;;;;5075782;28;20469;-70
2022/05/31 09:52:05;;;;;;;3.07;2.70;;;26.00;49.00;;;;;;5041487;28;20548;-71
2022/05/31 09:58:05;;;;;;;3.10;2.90;;;24.90;54.00;;;;;;5075469;28;20448;-70
2022/05/31 10:00:31;;;;;;;3.30;2.90;;;25.40;52.90;;;;;;5075640;28;20483;-70
2022/05/31 10:03:05;;;;;;;4.13;3.23;;;25.10;53.70;;;;;;5075151;28;20498;-70
2022/05/31 10:05:32;;;;;;;3.40;3.20;;;25.10;53.40;;;;;;5075443;28;20483;-70
2022/05/31 10:07:59;;;;;;;3.50;3.20;;;24.50;54.80;;;;;;5075034;28;20996;-70
2022/05/31 10:10:29;;;;;;;3.37;3.17;;;23.80;54.80;;;;;;5075333;28;20448;-70
2022/05/31 10:12:58;;;;;;;3.00;2.80;;;24.20;56.20;;;;;;5074955;28;20441;-70
2022/05/31 10:15:50;;;;;;;3.20;3.00;;;25.70;52.80;;;;;;5075155;28;20856;-70
2022/05/31 10:18:26;;;;;;;3.20;2.90;;;27.00;47.70;;;;;;5071859;28;20523;-70
2022/05/31 10:20:56;;;;;;;3.17;2.97;;;27.20;47.70;;;;;;5075158;28;20448;-70
2022/05/31 10:23:25;;;;;;;3.23;3.03;;;26.60;47.80;;;;;;5074889;28;20445;-70
2022/05/31 10:25:56;;;;;;;3.20;3.00;;;25.90;50.70;;;;;;5074970;28;20444;-70
2022/05/31 10:28:29;;;;;;;3.60;3.40;;;25.00;50.70;;;;;;5074709;28;20467;-70
2022/05/31 10:31:03;;;;;;;3.87;3.57;;;24.40;53.40;;;;;;5074731;28;20444;-70
2022/05/31 10:33:32;;;;;;;4.03;3.60;;;24.10;54.40;;;;;;5074658;28;20439;-70
2022/05/31 10:36:08;;;;;;;3.40;3.20;;;23.90;53.20;;;;;;5074845;28;20443;-69
2022/05/31 10:38:40;;;;;;;7.93;3.37;;;23.40;54.80;;;;;;5074613;28;20464;-70
2022/05/31 10:41:11;;;;;;;4.30;3.90;;;23.20;54.60;;;;;;5074754;28;20445;-70
2022/05/31 10:43:41;;;;;;;3.83;3.53;;;23.10;54.80;;;;;;5074575;28;20794;-68
2022/05/31 10:46:13;;;;;;;5.20;3.47;;;23.30;55.60;;;;;;5074583;28;20473;-71
2022/05/31 10:48:47;;;;;;;3.37;3.17;;;23.50;54.40;;;;;;5074290;28;20824;-70
2022/05/31 10:51:25;;;;;;;4.07;3.77;;;23.50;55.60;;;;;;5074608;28;20439;-70
2022/05/31 10:54:03;;;;;;;4.40;4.10;;;23.70;53.00;;;;;;5074068;28;20452;-70
2022/05/31 10:56:38;;;;;;;4.50;4.07;;;23.60;55.80;;;;;;5074393;28;20448;-70
2022/05/31 10:59:11;;;;;;;3.90;3.60;;;23.50;57.70;;;;;;5074475;28;20467;-70
2022/05/31 11:01:51;;;;;;;4.27;3.87;;;23.60;59.00;;;;;;5074262;28;20474;-70
2022/05/31 11:04:37;;;;;;;4.40;4.00;;;23.70;56.90;;;;;;5074211;28;20446;-70
2022/05/31 11:07:14;;;;;;;3.90;3.60;;;23.80;57.00;;;;;;5074234;28;20443;-70
2022/05/31 11:12:47;;;;;;;4.67;3.93;;;23.80;56.60;;;;;;5074017;28;20502;-70
2022/05/31 11:15:25;;;;;;;4.30;3.90;;;23.70;56.10;;;;;;5074103;28;20446;-70
2022/05/31 11:18:07;;;;;;;5.70;4.10;;;23.90;55.90;;;;;;5073900;28;20466;-70
2022/05/31 11:20:43;;;;;;;3.80;3.50;;;23.60;55.30;;;;;;5074065;28;20454;-70
2022/05/31 11:23:21;;;;;;;4.03;3.70;;;23.40;56.90;;;;;;5073716;28;20488;-70
2022/05/31 11:26:08;;;;;;;4.13;3.90;;;23.70;57.80;;;;;;5073932;28;20451;-70
2022/05/31 11:29:03;;;;;;;4.37;4.07;;;23.80;56.50;;;;;;5073736;28;20826;-70
2022/05/31 11:31:40;;;;;;;4.07;3.77;;;24.10;55.70;;;;;;5074119;28;20441;-70
2022/05/31 11:34:31;;;;;;;4.30;3.63;;;23.90;55.00;;;;;;5073686;28;20451;-70
2022/05/31 11:37:20;;;;;;;3.50;3.30;;;23.90;54.00;;;;;;5073739;28;20843;-70
2022/05/31 11:40:01;;;;;;;4.03;3.63;;;23.90;54.50;;;;;;5073066;28;20526;-70
2022/05/31 11:42:40;;;;;;;4.00;3.70;;;24.00;52.30;;;;;;5073479;28;20851;-70
2022/05/31 11:45:20;;;;;;;4.13;3.60;;;23.80;53.10;;;;;;5073682;28;20440;-70
2022/05/31 11:48:22;;;;;;;3.77;3.57;;;23.80;52.80;;;;;;5073650;28;20481;-70
2022/05/31 11:51:10;;;;;;;3.70;3.50;;;23.80;52.90;;;;;;5073533;28;20919;-70
2022/05/31 11:54:09;;;;;;;3.13;2.93;;;23.50;50.70;;;;;;5073337;28;20448;-70
2022/05/31 11:56:45;;;;;;;3.50;3.00;;;23.30;50.80;;;;;;5073609;28;20524;-69
2022/05/31 11:59:16;;;;;;;3.87;3.57;;;23.20;51.40;;;;;;5073505;28;20464;-70
2022/05/31 12:01:50;;;;;;;2.90;2.70;;;23.10;50.20;;;;;;5073525;28;20433;-70
2022/05/31 12:04:22;;;;;;;2.97;2.77;;;23.20;50.50;;;;;;5073376;28;20459;-70
2022/05/31 12:06:54;;;;;;;2.97;2.77;;;23.00;48.60;;;;;;5073500;28;20445;-70
2022/05/31 12:09:27;;;;;;;3.50;3.30;;;23.00;51.30;;;;;;5073117;28;20484;-70
2022/05/31 12:11:58;;;;;;;6.17;2.90;;;23.20;52.10;;;;;;5073351;28;20937;-70
2022/05/31 12:14:25;;;;;;;3.13;2.70;;;23.40;51.50;;;;;;5073685;28;20529;-70
2022/05/31 12:16:54;;;;;;;4.87;2.80;;;23.60;49.80;;;;;;5073371;28;20492;-70
2022/05/31 12:19:31;;;;;;;3.00;2.80;;;23.80;49.60;;;;;;5073315;28;20478;-70
2022/05/31 12:22:02;;;;;;;4.07;3.20;;;24.10;49.50;;;;;;5073305;28;20546;-70
2022/05/31 12:24:34;;;;;;;4.73;2.80;;;24.10;49.50;;;;;;5073176;28;21021;-70
2022/05/31 12:27:07;;;;;;;2.90;2.70;;;23.30;48.50;;;;;;5073193;28;20448;-70
2022/05/31 12:29:43;;;;;;;4.17;2.97;;;23.00;51.40;;;;;;5072999;28;20899;-70
2022/05/31 12:32:40;;;;;;;3.97;2.80;;;23.00;50.40;;;;;;5073069;28;20448;-69
2022/05/31 12:35:10;;;;;;;3.13;2.93;;;23.20;51.10;;;;;;5073153;28;20447;-70
2022/05/31 12:38:04;;;;;;;3.47;3.23;;;23.30;51.80;;;;;;5072928;28;20476;-69
2022/05/31 12:40:41;;;;;;;4.00;3.70;;;23.20;50.10;;;;;;5072940;28;20451;-69
2022/05/31 12:43:09;;;;;;;3.30;3.07;;;23.00;50.60;;;;;;5072834;28;20583;-70
2022/05/31 12:45:42;;;;;;;3.40;3.07;;;23.10;51.20;;;;;;5072975;28;20442;-69
2022/05/31 12:48:22;;;;;;;3.60;3.30;;;23.40;51.20;;;;;;5073025;28;20466;-70
2022/05/31 12:51:10;;;;;;;3.37;3.17;;;23.60;52.30;;;;;;5073782;28;20452;-69
2022/05/31 12:54:01;;;;;;;3.13;2.93;;;23.80;51.10;;;;;;5076322;28;20988;-70
2022/05/31 12:56:54;;;;;;;2.87;2.70;;;24.20;49.90;;;;;;5076769;28;20448;-70
2022/05/31 12:59:47;;;;;;;3.30;2.97;;;24.30;48.10;;;;;;5076387;28;20466;-70
2022/05/31 13:02:34;;;;;;;3.20;2.97;;;24.30;47.50;;;;;;5076593;28;20481;-70
2022/05/31 13:05:23;;;;;;;3.17;2.90;;;23.80;48.30;;;;;;5076581;28;20465;-70
2022/05/31 13:08:09;;;;;;;2.80;2.60;;;23.40;48.40;;;;;;5076304;28;20556;-70
2022/05/31 13:19:34;;;;;;;2.70;2.50;;;23.20;49.50;;;;;;5076205;28;20440;-70
2022/05/31 13:21:58;;;;;;;3.00;2.80;;;23.80;49.00;;;;;;5076325;28;20477;-70
2022/05/31 13:24:26;;;;;;;3.10;2.90;;;24.10;48.80;;;;;;5076079;28;20530;-70
2022/05/31 13:26:54;;;;;;;2.83;2.57;;;24.00;47.60;;;;;;5076236;28;20882;-70
2022/05/31 13:29:21;;;;;;;2.80;2.60;;;23.60;47.90;;;;;;5076075;28;20492;-70
2022/05/31 13:31:53;;;;;;;2.97;2.77;;;23.30;47.70;;;;;;5076105;28;20791;-70